sensor_id;sensor_type;location;lat;lon;timestamp;P1;durP1;ratioP1;P2;durP2;ratioP2
9968;SDS011;5025;48.890;9.278;2023-05-07T00:00:51;2.40;;;2.30;;
9968;SDS011;5025;48.890;9.278;2023-05-07T00:03:17;2.33;;;2.23;;
9968;SDS011;5025;48.890;9.278;2023-05-07T00:05:43;1.90;;;1.80;;
9968;SDS011;5025;48.890;9.278;2023-05-07T00:08:08;2.40;;;2.27;;
9968;SDS011;5025;48.890;9.278;2023-05-07T00:10:33;2.50;;;2.40;;
9968;SDS011;5025;48.890;9.278;2023-05-07T00:12:58;2.13;;;2.03;;
9968;SDS011;5025;48.890;9.278;2023-05-07T00:15:24;2.17;;;1.97;;
9968;SDS011;5025;48.890;9.278;2023-05-07T00:17:49;2.27;;;2.17;;
9968;SDS011;5025;48.890;9.278;2023-05-07T00:20:14;2.20;;;2.10;;
9968;SDS011;5025;48.890;9.278;2023-05-07T00:22:40;2.20;;;2.10;;
9968;SDS011;5025;48.890;9.278;2023-05-07T00:25:05;2.40;;;2.10;;
9968;SDS011;5025;48.890;9.278;2023-05-07T00:27:31;2.27;;;2.17;;
9968;SDS011;5025;48.890;9.278;2023-05-07T00:29:56;2.27;;;2.17;;
9968;SDS011;5025;48.890;9.278;2023-05-07T00:32:21;2.27;;;2.17;;
9968;SDS011;5025;48.890;9.278;2023-05-07T00:34:47;2.07;;;1.97;;
9968;SDS011;5025;48.890;9.278;2023-05-07T00:37:12;2.27;;;2.07;;
9968;SDS011;5025;48.890;9.278;2023-05-07T00:39:37;2.40;;;2.30;;
9968;SDS011;5025;48.890;9.278;2023-05-07T00:42:03;2.40;;;2.30;;
9968;SDS011;5025;48.890;9.278;2023-05-07T00:44:28;2.40;;;2.20;;
9968;SDS011;5025;48.890;9.278;2023-05-07T00:46:54;2.40;;;2.30;;
9968;SDS011;5025;48.890;9.278;2023-05-07T00:49:21;2.23;;;2.03;;
9968;SDS011;5025;48.890;9.278;2023-05-07T00:51:47;2.00;;;1.90;;
9968;SDS011;5025;48.890;9.278;2023-05-07T00:54:12;2.20;;;2.10;;
9968;SDS011;5025;48.890;9.278;2023-05-07T00:56:38;2.60;;;2.40;;
9968;SDS011;5025;48.890;9.278;2023-05-07T00:59:04;2.30;;;2.20;;
9968;SDS011;5025;48.890;9.278;2023-05-07T01:01:30;3.33;;;2.00;;
9968;SDS011;5025;48.890;9.278;2023-05-07T01:03:56;1.90;;;1.80;;
9968;SDS011;5025;48.890;9.278;2023-05-07T01:06:22;2.47;;;2.27;;
9968;SDS011;5025;48.890;9.278;2023-05-07T01:08:49;2.03;;;1.93;;
9968;SDS011;5025;48.890;9.278;2023-05-07T01:11:17;2.10;;;2.00;;
9968;SDS011;5025;48.890;9.278;2023-05-07T01:13:45;2.10;;;2.00;;
9968;SDS011;5025;48.890;9.278;2023-05-07T01:16:11;2.60;;;2.30;;
9968;SDS011;5025;48.890;9.278;2023-05-07T01:18:36;2.30;;;2.20;;
9968;SDS011;5025;48.890;9.278;2023-05-07T01:21:02;2.23;;;2.10;;
9968;SDS011;5025;48.890;9.278;2023-05-07T01:23:29;2.20;;;2.10;;
9968;SDS011;5025;48.890;9.278;2023-05-07T01:25:55;2.20;;;2.10;;
9968;SDS011;5025;48.890;9.278;2023-05-07T01:28:20;2.20;;;2.10;;
9968;SDS011;5025;48.890;9.278;2023-05-07T01:30:51;2.30;;;2.20;;
9968;SDS011;5025;48.890;9.278;2023-05-07T01:33:20;2.20;;;2.10;;
9968;SDS011;5025;48.890;9.278;2023-05-07T01:35:48;2.20;;;2.10;;
9968;SDS011;5025;48.890;9.278;2023-05-07T01:38:16;2.53;;;2.30;;
9968;SDS011;5025;48.890;9.278;2023-05-07T01:40:42;3.17;;;2.20;;
9968;SDS011;5025;48.890;9.278;2023-05-07T01:43:08;2.50;;;2.40;;
9968;SDS011;5025;48.890;9.278;2023-05-07T01:45:34;2.37;;;2.27;;
9968;SDS011;5025;48.890;9.278;2023-05-07T01:48:00;2.20;;;2.10;;
9968;SDS011;5025;48.890;9.278;2023-05-07T01:50:26;2.30;;;2.10;;
9968;SDS011;5025;48.890;9.278;2023-05-07T01:52:52;2.30;;;2.20;;
9968;SDS011;5025;48.890;9.278;2023-05-07T01:55:17;2.50;;;2.40;;
9968;SDS011;5025;48.890;9.278;2023-05-07T01:57:43;2.00;;;1.90;;
9968;SDS011;5025;48.890;9.278;2023-05-07T02:00:08;2.27;;;2.17;;
9968;SDS011;5025;48.890;9.278;2023-05-07T02:02:34;2.17;;;2.07;;
9968;SDS011;5025;48.890;9.278;2023-05-07T02:05:00;2.20;;;2.10;;
9968;SDS011;5025;48.890;9.278;2023-05-07T02:07:26;2.03;;;2.00;;
9968;SDS011;5025;48.890;9.278;2023-05-07T02:09:51;2.40;;;1.80;;
9968;SDS011;5025;48.890;9.278;2023-05-07T02:12:17;2.10;;;2.00;;
9968;SDS011;5025;48.890;9.278;2023-05-07T02:14:42;2.20;;;2.10;;
9968;SDS011;5025;48.890;9.278;2023-05-07T02:17:07;2.17;;;2.00;;
9968;SDS011;5025;48.890;9.278;2023-05-07T02:19:33;2.00;;;1.90;;
9968;SDS011;5025;48.890;9.278;2023-05-07T02:21:58;2.20;;;2.10;;
9968;SDS011;5025;48.890;9.278;2023-05-07T02:24:23;2.40;;;2.20;;
9968;SDS011;5025;48.890;9.278;2023-05-07T02:26:48;2.03;;;1.77;;
9968;SDS011;5025;48.890;9.278;2023-05-07T02:29:14;2.30;;;2.10;;
9968;SDS011;5025;48.890;9.278;2023-05-07T02:31:39;2.90;;;2.23;;
9968;SDS011;5025;48.890;9.278;2023-05-07T02:34:04;2.37;;;2.23;;
9968;SDS011;5025;48.890;9.278;2023-05-07T02:36:29;2.40;;;2.30;;
9968;SDS011;5025;48.890;9.278;2023-05-07T02:38:55;2.50;;;2.30;;
9968;SDS011;5025;48.890;9.278;2023-05-07T02:41:20;2.40;;;2.30;;
9968;SDS011;5025;48.890;9.278;2023-05-07T02:43:46;2.50;;;2.30;;
9968;SDS011;5025;48.890;9.278;2023-05-07T02:46:11;2.27;;;2.17;;
9968;SDS011;5025;48.890;9.278;2023-05-07T02:48:36;2.47;;;2.33;;
9968;SDS011;5025;48.890;9.278;2023-05-07T02:51:02;2.20;;;2.10;;
9968;SDS011;5025;48.890;9.278;2023-05-07T02:53:28;2.10;;;2.00;;
9968;SDS011;5025;48.890;9.278;2023-05-07T02:55:55;2.20;;;2.10;;
9968;SDS011;5025;48.890;9.278;2023-05-07T02:58:21;2.27;;;2.10;;
9968;SDS011;5025;48.890;9.278;2023-05-07T03:00:46;2.30;;;2.20;;
9968;SDS011;5025;48.890;9.278;2023-05-07T03:03:11;2.10;;;2.00;;
9968;SDS011;5025;48.890;9.278;2023-05-07T03:05:37;2.60;;;2.40;;
9968;SDS011;5025;48.890;9.278;2023-05-07T03:08:02;2.47;;;2.27;;
9968;SDS011;5025;48.890;9.278;2023-05-07T03:10:28;1.83;;;1.83;;
9968;SDS011;5025;48.890;9.278;2023-05-07T03:12:54;1.97;;;1.97;;
9968;SDS011;5025;48.890;9.278;2023-05-07T03:15:20;2.30;;;2.20;;
9968;SDS011;5025;48.890;9.278;2023-05-07T03:17:46;2.43;;;2.10;;
9968;SDS011;5025;48.890;9.278;2023-05-07T03:20:11;2.30;;;2.20;;
9968;SDS011;5025;48.890;9.278;2023-05-07T03:22:37;2.63;;;2.20;;
9968;SDS011;5025;48.890;9.278;2023-05-07T03:25:03;1.90;;;1.80;;
9968;SDS011;5025;48.890;9.278;2023-05-07T03:27:29;2.20;;;2.10;;
9968;SDS011;5025;48.890;9.278;2023-05-07T03:29:54;2.20;;;2.10;;
9968;SDS011;5025;48.890;9.278;2023-05-07T03:32:20;2.23;;;2.13;;
9968;SDS011;5025;48.890;9.278;2023-05-07T03:34:45;1.90;;;1.90;;
9968;SDS011;5025;48.890;9.278;2023-05-07T03:37:10;2.13;;;2.00;;
9968;SDS011;5025;48.890;9.278;2023-05-07T03:39:35;2.30;;;2.20;;
9968;SDS011;5025;48.890;9.278;2023-05-07T03:42:01;1.90;;;1.80;;
9968;SDS011;5025;48.890;9.278;2023-05-07T03:44:26;2.30;;;2.20;;
9968;SDS011;5025;48.890;9.278;2023-05-07T03:46:51;2.57;;;2.47;;
9968;SDS011;5025;48.890;9.278;2023-05-07T03:49:16;2.57;;;2.37;;
9968;SDS011;5025;48.890;9.278;2023-05-07T03:51:42;2.30;;;2.20;;
9968;SDS011;5025;48.890;9.278;2023-05-07T03:54:07;2.33;;;2.23;;
9968;SDS011;5025;48.890;9.278;2023-05-07T03:56:32;3.73;;;2.20;;
9968;SDS011;5025;48.890;9.278;2023-05-07T03:58:58;2.43;;;2.27;;
9968;SDS011;5025;48.890;9.278;2023-05-07T04:01:23;2.30;;;2.20;;
9968;SDS011;5025;48.890;9.278;2023-05-07T04:03:48;2.30;;;2.20;;
9968;SDS011;5025;48.890;9.278;2023-05-07T04:06:15;2.60;;;2.20;;
9968;SDS011;5025;48.890;9.278;2023-05-07T04:08:41;2.10;;;2.00;;
9968;SDS011;5025;48.890;9.278;2023-05-07T04:11:06;2.50;;;2.30;;
9968;SDS011;5025;48.890;9.278;2023-05-07T04:13:31;2.23;;;2.13;;
9968;SDS011;5025;48.890;9.278;2023-05-07T04:15:57;2.10;;;2.00;;
9968;SDS011;5025;48.890;9.278;2023-05-07T04:18:22;2.20;;;2.10;;
9968;SDS011;5025;48.890;9.278;2023-05-07T04:20:48;2.10;;;2.00;;
9968;SDS011;5025;48.890;9.278;2023-05-07T04:23:14;2.17;;;2.07;;
9968;SDS011;5025;48.890;9.278;2023-05-07T04:25:40;2.27;;;2.10;;
9968;SDS011;5025;48.890;9.278;2023-05-07T04:28:06;2.00;;;1.90;;
9968;SDS011;5025;48.890;9.278;2023-05-07T04:30:32;2.27;;;2.17;;
9968;SDS011;5025;48.890;9.278;2023-05-07T04:32:57;2.40;;;2.30;;
9968;SDS011;5025;48.890;9.278;2023-05-07T04:35:22;2.37;;;2.17;;
9968;SDS011;5025;48.890;9.278;2023-05-07T04:37:47;2.40;;;2.30;;
9968;SDS011;5025;48.890;9.278;2023-05-07T04:40:13;2.40;;;2.30;;
9968;SDS011;5025;48.890;9.278;2023-05-07T04:42:38;2.73;;;2.53;;
9968;SDS011;5025;48.890;9.278;2023-05-07T04:45:04;2.67;;;2.47;;
9968;SDS011;5025;48.890;9.278;2023-05-07T04:47:30;2.50;;;2.30;;
9968;SDS011;5025;48.890;9.278;2023-05-07T04:49:55;2.43;;;2.33;;
9968;SDS011;5025;48.890;9.278;2023-05-07T04:52:20;2.63;;;2.43;;
9968;SDS011;5025;48.890;9.278;2023-05-07T04:54:45;2.47;;;2.27;;
9968;SDS011;5025;48.890;9.278;2023-05-07T04:57:11;2.80;;;2.60;;
9968;SDS011;5025;48.890;9.278;2023-05-07T04:59:36;2.37;;;2.27;;
9968;SDS011;5025;48.890;9.278;2023-05-07T05:02:01;2.60;;;2.50;;
9968;SDS011;5025;48.890;9.278;2023-05-07T05:04:29;2.60;;;2.47;;
9968;SDS011;5025;48.890;9.278;2023-05-07T05:06:54;2.50;;;2.30;;
9968;SDS011;5025;48.890;9.278;2023-05-07T05:09:19;2.50;;;2.30;;
9968;SDS011;5025;48.890;9.278;2023-05-07T05:11:45;2.50;;;2.30;;
9968;SDS011;5025;48.890;9.278;2023-05-07T05:14:10;2.40;;;2.30;;
9968;SDS011;5025;48.890;9.278;2023-05-07T05:16:35;2.47;;;2.30;;
9968;SDS011;5025;48.890;9.278;2023-05-07T05:19:01;3.00;;;2.57;;
9968;SDS011;5025;48.890;9.278;2023-05-07T05:21:27;2.40;;;2.30;;
9968;SDS011;5025;48.890;9.278;2023-05-07T05:23:52;2.57;;;2.37;;
9968;SDS011;5025;48.890;9.278;2023-05-07T05:26:17;2.40;;;2.30;;
9968;SDS011;5025;48.890;9.278;2023-05-07T05:28:43;2.23;;;2.13;;
9968;SDS011;5025;48.890;9.278;2023-05-07T05:31:08;2.70;;;2.50;;
9968;SDS011;5025;48.890;9.278;2023-05-07T05:33:34;2.63;;;2.53;;
9968;SDS011;5025;48.890;9.278;2023-05-07T05:35:59;2.77;;;2.67;;
9968;SDS011;5025;48.890;9.278;2023-05-07T05:38:24;2.87;;;2.67;;
9968;SDS011;5025;48.890;9.278;2023-05-07T05:40:50;2.53;;;2.43;;
9968;SDS011;5025;48.890;9.278;2023-05-07T05:43:16;2.83;;;2.63;;
9968;SDS011;5025;48.890;9.278;2023-05-07T05:45:41;2.57;;;2.37;;
9968;SDS011;5025;48.890;9.278;2023-05-07T05:48:06;2.57;;;2.47;;
9968;SDS011;5025;48.890;9.278;2023-05-07T05:50:33;2.30;;;2.20;;
9968;SDS011;5025;48.890;9.278;2023-05-07T05:53:00;2.30;;;2.20;;
9968;SDS011;5025;48.890;9.278;2023-05-07T05:55:25;2.37;;;2.27;;
9968;SDS011;5025;48.890;9.278;2023-05-07T05:57:51;3.00;;;2.80;;
9968;SDS011;5025;48.890;9.278;2023-05-07T06:00:17;2.80;;;2.60;;
9968;SDS011;5025;48.890;9.278;2023-05-07T06:02:42;3.00;;;2.80;;
9968;SDS011;5025;48.890;9.278;2023-05-07T06:05:08;2.70;;;2.60;;
9968;SDS011;5025;48.890;9.278;2023-05-07T06:07:33;2.27;;;2.17;;
9968;SDS011;5025;48.890;9.278;2023-05-07T06:09:59;2.50;;;2.40;;
9968;SDS011;5025;48.890;9.278;2023-05-07T06:12:25;2.67;;;2.47;;
9968;SDS011;5025;48.890;9.278;2023-05-07T06:14:50;2.50;;;2.40;;
9968;SDS011;5025;48.890;9.278;2023-05-07T06:17:15;2.63;;;2.43;;
9968;SDS011;5025;48.890;9.278;2023-05-07T06:19:40;2.67;;;2.50;;
9968;SDS011;5025;48.890;9.278;2023-05-07T06:22:06;2.50;;;2.40;;
9968;SDS011;5025;48.890;9.278;2023-05-07T06:24:31;2.67;;;2.53;;
9968;SDS011;5025;48.890;9.278;2023-05-07T06:26:56;2.30;;;2.20;;
9968;SDS011;5025;48.890;9.278;2023-05-07T06:29:23;2.50;;;2.30;;
9968;SDS011;5025;48.890;9.278;2023-05-07T06:31:50;2.17;;;2.07;;
9968;SDS011;5025;48.890;9.278;2023-05-07T06:34:15;2.70;;;2.60;;
9968;SDS011;5025;48.890;9.278;2023-05-07T06:36:41;2.40;;;2.30;;
9968;SDS011;5025;48.890;9.278;2023-05-07T06:39:06;2.17;;;2.07;;
9968;SDS011;5025;48.890;9.278;2023-05-07T06:41:31;2.30;;;2.20;;
9968;SDS011;5025;48.890;9.278;2023-05-07T06:43:57;1.73;;;1.73;;
9968;SDS011;5025;48.890;9.278;2023-05-07T06:46:22;2.53;;;2.43;;
9968;SDS011;5025;48.890;9.278;2023-05-07T06:48:47;2.57;;;2.47;;
9968;SDS011;5025;48.890;9.278;2023-05-07T06:51:13;2.60;;;2.47;;
9968;SDS011;5025;48.890;9.278;2023-05-07T06:53:38;2.37;;;2.27;;
9968;SDS011;5025;48.890;9.278;2023-05-07T06:56:03;2.30;;;2.10;;
9968;SDS011;5025;48.890;9.278;2023-05-07T06:58:29;2.40;;;2.20;;
9968;SDS011;5025;48.890;9.278;2023-05-07T07:00:55;2.53;;;2.43;;
9968;SDS011;5025;48.890;9.278;2023-05-07T07:03:20;2.10;;;2.00;;
9968;SDS011;5025;48.890;9.278;2023-05-07T07:05:45;2.30;;;2.20;;
9968;SDS011;5025;48.890;9.278;2023-05-07T07:08:11;2.80;;;2.60;;
9968;SDS011;5025;48.890;9.278;2023-05-07T07:10:36;3.00;;;2.80;;
9968;SDS011;5025;48.890;9.278;2023-05-07T07:13:01;2.97;;;2.60;;
9968;SDS011;5025;48.890;9.278;2023-05-07T07:15:26;2.50;;;2.40;;
9968;SDS011;5025;48.890;9.278;2023-05-07T07:17:52;2.60;;;2.50;;
9968;SDS011;5025;48.890;9.278;2023-05-07T07:20:17;2.20;;;2.10;;
9968;SDS011;5025;48.890;9.278;2023-05-07T07:22:42;2.30;;;2.20;;
9968;SDS011;5025;48.890;9.278;2023-05-07T07:25:08;2.30;;;2.20;;
9968;SDS011;5025;48.890;9.278;2023-05-07T07:27:34;2.07;;;2.00;;
9968;SDS011;5025;48.890;9.278;2023-05-07T07:29:59;2.50;;;2.40;;
9968;SDS011;5025;48.890;9.278;2023-05-07T07:32:24;2.10;;;1.93;;
9968;SDS011;5025;48.890;9.278;2023-05-07T07:34:50;2.03;;;2.00;;
9968;SDS011;5025;48.890;9.278;2023-05-07T07:37:15;2.17;;;2.07;;
9968;SDS011;5025;48.890;9.278;2023-05-07T07:39:41;1.93;;;1.83;;
9968;SDS011;5025;48.890;9.278;2023-05-07T07:42:06;2.10;;;2.00;;
9968;SDS011;5025;48.890;9.278;2023-05-07T07:44:31;1.63;;;1.60;;
9968;SDS011;5025;48.890;9.278;2023-05-07T07:46:56;1.60;;;1.50;;
9968;SDS011;5025;48.890;9.278;2023-05-07T07:49:22;1.57;;;1.57;;
9968;SDS011;5025;48.890;9.278;2023-05-07T07:51:47;1.60;;;1.60;;
9968;SDS011;5025;48.890;9.278;2023-05-07T07:54:12;1.40;;;1.40;;
9968;SDS011;5025;48.890;9.278;2023-05-07T07:56:37;1.60;;;1.50;;
9968;SDS011;5025;48.890;9.278;2023-05-07T07:59:03;1.50;;;1.40;;
9968;SDS011;5025;48.890;9.278;2023-05-07T08:01:29;1.37;;;1.37;;
9968;SDS011;5025;48.890;9.278;2023-05-07T08:03:55;2.20;;;2.10;;
9968;SDS011;5025;48.890;9.278;2023-05-07T08:06:20;2.53;;;2.33;;
9968;SDS011;5025;48.890;9.278;2023-05-07T08:08:46;2.10;;;2.00;;
9968;SDS011;5025;48.890;9.278;2023-05-07T08:11:11;2.40;;;2.20;;
9968;SDS011;5025;48.890;9.278;2023-05-07T08:13:36;2.20;;;1.97;;
9968;SDS011;5025;48.890;9.278;2023-05-07T08:16:03;2.13;;;2.03;;
9968;SDS011;5025;48.890;9.278;2023-05-07T08:18:29;2.30;;;2.00;;
9968;SDS011;5025;48.890;9.278;2023-05-07T08:20:54;1.50;;;1.50;;
9968;SDS011;5025;48.890;9.278;2023-05-07T08:23:20;1.90;;;1.80;;
9968;SDS011;5025;48.890;9.278;2023-05-07T08:25:45;1.90;;;1.80;;
9968;SDS011;5025;48.890;9.278;2023-05-07T08:28:11;1.60;;;1.60;;
9968;SDS011;5025;48.890;9.278;2023-05-07T08:30:36;1.50;;;1.50;;
9968;SDS011;5025;48.890;9.278;2023-05-07T08:33:01;1.67;;;1.67;;
9968;SDS011;5025;48.890;9.278;2023-05-07T08:35:26;1.63;;;1.53;;
9968;SDS011;5025;48.890;9.278;2023-05-07T08:37:52;1.40;;;1.40;;
9968;SDS011;5025;48.890;9.278;2023-05-07T08:40:18;1.47;;;1.47;;
9968;SDS011;5025;48.890;9.278;2023-05-07T08:42:43;1.60;;;1.60;;
9968;SDS011;5025;48.890;9.278;2023-05-07T08:45:10;1.40;;;1.40;;
9968;SDS011;5025;48.890;9.278;2023-05-07T08:47:39;1.40;;;1.30;;
9968;SDS011;5025;48.890;9.278;2023-05-07T08:50:09;1.47;;;1.47;;
9968;SDS011;5025;48.890;9.278;2023-05-07T08:52:35;1.30;;;1.30;;
9968;SDS011;5025;48.890;9.278;2023-05-07T08:55:01;1.80;;;1.70;;
9968;SDS011;5025;48.890;9.278;2023-05-07T08:57:27;1.97;;;1.87;;
9968;SDS011;5025;48.890;9.278;2023-05-07T08:59:53;1.80;;;1.70;;
9968;SDS011;5025;48.890;9.278;2023-05-07T09:02:18;2.00;;;1.90;;
9968;SDS011;5025;48.890;9.278;2023-05-07T09:04:43;2.00;;;1.90;;
9968;SDS011;5025;48.890;9.278;2023-05-07T09:07:09;2.10;;;2.00;;
9968;SDS011;5025;48.890;9.278;2023-05-07T09:09:34;2.20;;;2.10;;
9968;SDS011;5025;48.890;9.278;2023-05-07T09:11:59;2.10;;;2.00;;
9968;SDS011;5025;48.890;9.278;2023-05-07T09:14:25;2.30;;;2.10;;
9968;SDS011;5025;48.890;9.278;2023-05-07T09:16:52;2.17;;;2.07;;
9968;SDS011;5025;48.890;9.278;2023-05-07T09:19:21;2.57;;;2.47;;
9968;SDS011;5025;48.890;9.278;2023-05-07T09:21:57;2.00;;;1.90;;
9968;SDS011;5025;48.890;9.278;2023-05-07T09:24:24;4.43;;;2.60;;
9968;SDS011;5025;48.890;9.278;2023-05-07T09:26:49;2.10;;;2.00;;
9968;SDS011;5025;48.890;9.278;2023-05-07T09:29:15;2.10;;;2.00;;
9968;SDS011;5025;48.890;9.278;2023-05-07T09:31:41;1.90;;;1.80;;
9968;SDS011;5025;48.890;9.278;2023-05-07T09:34:07;2.00;;;1.90;;
9968;SDS011;5025;48.890;9.278;2023-05-07T09:36:33;2.00;;;1.90;;
9968;SDS011;5025;48.890;9.278;2023-05-07T09:39:01;1.80;;;1.77;;
9968;SDS011;5025;48.890;9.278;2023-05-07T09:41:26;2.10;;;2.00;;
9968;SDS011;5025;48.890;9.278;2023-05-07T09:43:54;2.10;;;2.00;;
9968;SDS011;5025;48.890;9.278;2023-05-07T09:46:20;3.30;;;2.67;;
9968;SDS011;5025;48.890;9.278;2023-05-07T09:48:52;2.40;;;2.30;;
9968;SDS011;5025;48.890;9.278;2023-05-07T09:51:22;2.40;;;2.30;;
9968;SDS011;5025;48.890;9.278;2023-05-07T09:53:58;2.30;;;2.20;;
9968;SDS011;5025;48.890;9.278;2023-05-07T09:56:29;2.00;;;1.90;;
9968;SDS011;5025;48.890;9.278;2023-05-07T09:58:56;2.00;;;1.90;;
9968;SDS011;5025;48.890;9.278;2023-05-07T10:01:25;2.37;;;2.20;;
9968;SDS011;5025;48.890;9.278;2023-05-07T10:03:52;2.20;;;1.90;;
9968;SDS011;5025;48.890;9.278;2023-05-07T10:06:18;2.20;;;2.10;;
9968;SDS011;5025;48.890;9.278;2023-05-07T10:08:45;1.90;;;1.80;;
9968;SDS011;5025;48.890;9.278;2023-05-07T10:11:11;1.60;;;1.60;;
9968;SDS011;5025;48.890;9.278;2023-05-07T10:13:36;2.20;;;2.00;;
9968;SDS011;5025;48.890;9.278;2023-05-07T10:16:03;3.00;;;2.67;;
9968;SDS011;5025;48.890;9.278;2023-05-07T10:18:30;2.53;;;2.33;;
9968;SDS011;5025;48.890;9.278;2023-05-07T10:21:01;2.83;;;2.10;;
9968;SDS011;5025;48.890;9.278;2023-05-07T10:23:36;2.00;;;1.90;;
9968;SDS011;5025;48.890;9.278;2023-05-07T10:26:03;2.07;;;1.97;;
9968;SDS011;5025;48.890;9.278;2023-05-07T10:28:31;2.33;;;2.23;;
9968;SDS011;5025;48.890;9.278;2023-05-07T10:33:42;2.50;;;2.30;;
9968;SDS011;5025;48.890;9.278;2023-05-07T10:36:10;2.17;;;1.97;;
9968;SDS011;5025;48.890;9.278;2023-05-07T10:38:35;2.10;;;2.00;;
9968;SDS011;5025;48.890;9.278;2023-05-07T10:41:01;2.00;;;1.90;;
9968;SDS011;5025;48.890;9.278;2023-05-07T10:43:42;1.60;;;1.60;;
9968;SDS011;5025;48.890;9.278;2023-05-07T10:46:13;1.80;;;1.70;;
9968;SDS011;5025;48.890;9.278;2023-05-07T10:51:34;1.70;;;1.70;;
9968;SDS011;5025;48.890;9.278;2023-05-07T10:56:34;1.73;;;1.60;;
9968;SDS011;5025;48.890;9.278;2023-05-07T11:04:32;2.10;;;2.00;;
9968;SDS011;5025;48.890;9.278;2023-05-07T11:12:46;1.70;;;1.70;;
9968;SDS011;5025;48.890;9.278;2023-05-07T11:15:04;1.70;;;1.70;;
9968;SDS011;5025;48.890;9.278;2023-05-07T11:20:20;1.40;;;1.40;;
9968;SDS011;5025;48.890;9.278;2023-05-07T11:22:46;1.60;;;1.60;;
9968;SDS011;5025;48.890;9.278;2023-05-07T11:25:16;1.70;;;1.60;;
9968;SDS011;5025;48.890;9.278;2023-05-07T11:27:43;1.63;;;1.57;;
9968;SDS011;5025;48.890;9.278;2023-05-07T11:30:09;1.53;;;1.53;;
9968;SDS011;5025;48.890;9.278;2023-05-07T11:32:36;1.20;;;1.20;;
9968;SDS011;5025;48.890;9.278;2023-05-07T11:35:01;1.40;;;1.40;;
9968;SDS011;5025;48.890;9.278;2023-05-07T11:37:27;1.60;;;1.50;;
9968;SDS011;5025;48.890;9.278;2023-05-07T11:40:04;1.30;;;1.30;;
9968;SDS011;5025;48.890;9.278;2023-05-07T11:42:32;1.60;;;1.50;;
9968;SDS011;5025;48.890;9.278;2023-05-07T11:44:59;1.60;;;1.50;;
9968;SDS011;5025;48.890;9.278;2023-05-07T11:47:25;1.43;;;1.40;;
9968;SDS011;5025;48.890;9.278;2023-05-07T11:49:54;1.30;;;1.30;;
9968;SDS011;5025;48.890;9.278;2023-05-07T11:52:21;1.40;;;1.40;;
9968;SDS011;5025;48.890;9.278;2023-05-07T11:54:50;1.50;;;1.50;;
9968;SDS011;5025;48.890;9.278;2023-05-07T11:57:17;1.33;;;1.33;;
9968;SDS011;5025;48.890;9.278;2023-05-07T11:59:42;1.60;;;1.50;;
9968;SDS011;5025;48.890;9.278;2023-05-07T12:02:09;1.37;;;1.37;;
9968;SDS011;5025;48.890;9.278;2023-05-07T12:04:35;1.30;;;1.30;;
9968;SDS011;5025;48.890;9.278;2023-05-07T12:07:00;1.50;;;1.50;;
9968;SDS011;5025;48.890;9.278;2023-05-07T12:09:26;1.40;;;1.30;;
9968;SDS011;5025;48.890;9.278;2023-05-07T12:11:51;1.20;;;1.20;;
9968;SDS011;5025;48.890;9.278;2023-05-07T12:14:17;1.37;;;1.37;;
9968;SDS011;5025;48.890;9.278;2023-05-07T12:16:42;1.40;;;1.40;;
9968;SDS011;5025;48.890;9.278;2023-05-07T12:19:08;1.20;;;1.20;;
9968;SDS011;5025;48.890;9.278;2023-05-07T12:21:37;1.40;;;1.30;;
9968;SDS011;5025;48.890;9.278;2023-05-07T12:24:03;1.27;;;1.27;;
9968;SDS011;5025;48.890;9.278;2023-05-07T12:26:29;1.33;;;1.33;;
9968;SDS011;5025;48.890;9.278;2023-05-07T12:28:54;1.30;;;1.30;;
9968;SDS011;5025;48.890;9.278;2023-05-07T12:31:22;1.27;;;1.27;;
9968;SDS011;5025;48.890;9.278;2023-05-07T12:33:47;1.20;;;1.20;;
9968;SDS011;5025;48.890;9.278;2023-05-07T12:36:12;1.23;;;1.23;;
9968;SDS011;5025;48.890;9.278;2023-05-07T12:38:38;1.20;;;1.20;;
9968;SDS011;5025;48.890;9.278;2023-05-07T12:41:05;1.00;;;1.00;;
9968;SDS011;5025;48.890;9.278;2023-05-07T12:43:32;1.20;;;1.20;;
9968;SDS011;5025;48.890;9.278;2023-05-07T12:45:59;1.00;;;1.00;;
9968;SDS011;5025;48.890;9.278;2023-05-07T12:48:26;1.20;;;1.20;;
9968;SDS011;5025;48.890;9.278;2023-05-07T12:50:55;1.13;;;1.13;;
9968;SDS011;5025;48.890;9.278;2023-05-07T12:53:23;1.20;;;1.20;;
9968;SDS011;5025;48.890;9.278;2023-05-07T12:55:53;1.00;;;1.00;;
9968;SDS011;5025;48.890;9.278;2023-05-07T12:58:27;1.00;;;1.00;;
9968;SDS011;5025;48.890;9.278;2023-05-07T13:00:58;1.37;;;1.30;;
9968;SDS011;5025;48.890;9.278;2023-05-07T13:03:29;1.90;;;1.80;;
9968;SDS011;5025;48.890;9.278;2023-05-07T13:05:57;1.60;;;1.50;;
9968;SDS011;5025;48.890;9.278;2023-05-07T13:08:24;1.63;;;1.63;;
9968;SDS011;5025;48.890;9.278;2023-05-07T13:10:50;2.20;;;2.00;;
9968;SDS011;5025;48.890;9.278;2023-05-07T13:13:15;2.00;;;1.90;;
9968;SDS011;5025;48.890;9.278;2023-05-07T13:15:41;2.40;;;2.07;;
9968;SDS011;5025;48.890;9.278;2023-05-07T13:18:06;2.27;;;2.10;;
9968;SDS011;5025;48.890;9.278;2023-05-07T13:20:31;2.33;;;2.20;;
9968;SDS011;5025;48.890;9.278;2023-05-07T13:22:57;2.30;;;2.20;;
9968;SDS011;5025;48.890;9.278;2023-05-07T13:25:22;2.23;;;2.03;;
9968;SDS011;5025;48.890;9.278;2023-05-07T13:27:47;2.03;;;1.90;;
9968;SDS011;5025;48.890;9.278;2023-05-07T13:30:12;2.57;;;2.30;;
9968;SDS011;5025;48.890;9.278;2023-05-07T13:32:38;3.00;;;2.00;;
9968;SDS011;5025;48.890;9.278;2023-05-07T13:35:03;1.60;;;1.50;;
9968;SDS011;5025;48.890;9.278;2023-05-07T13:37:29;1.97;;;1.87;;
9968;SDS011;5025;48.890;9.278;2023-05-07T13:39:54;2.47;;;1.43;;
9968;SDS011;5025;48.890;9.278;2023-05-07T13:42:20;1.70;;;1.60;;
9968;SDS011;5025;48.890;9.278;2023-05-07T13:44:45;1.50;;;1.40;;
9968;SDS011;5025;48.890;9.278;2023-05-07T13:47:10;2.73;;;1.20;;
9968;SDS011;5025;48.890;9.278;2023-05-07T13:49:36;1.40;;;1.30;;
9968;SDS011;5025;48.890;9.278;2023-05-07T13:52:01;1.43;;;1.33;;
9968;SDS011;5025;48.890;9.278;2023-05-07T13:54:27;3.47;;;1.30;;
9968;SDS011;5025;48.890;9.278;2023-05-07T13:56:52;1.30;;;1.20;;
9968;SDS011;5025;48.890;9.278;2023-05-07T13:59:17;1.10;;;1.10;;
9968;SDS011;5025;48.890;9.278;2023-05-07T14:01:42;1.50;;;1.30;;
9968;SDS011;5025;48.890;9.278;2023-05-07T14:04:08;1.00;;;1.00;;
9968;SDS011;5025;48.890;9.278;2023-05-07T14:06:33;1.07;;;1.07;;
9968;SDS011;5025;48.890;9.278;2023-05-07T14:08:58;2.40;;;1.40;;
9968;SDS011;5025;48.890;9.278;2023-05-07T14:11:25;1.20;;;1.20;;
9968;SDS011;5025;48.890;9.278;2023-05-07T14:13:50;1.07;;;0.90;;
9968;SDS011;5025;48.890;9.278;2023-05-07T14:16:15;0.90;;;0.90;;
9968;SDS011;5025;48.890;9.278;2023-05-07T14:18:40;0.80;;;0.80;;
9968;SDS011;5025;48.890;9.278;2023-05-07T14:21:06;1.00;;;1.00;;
9968;SDS011;5025;48.890;9.278;2023-05-07T14:23:31;0.90;;;0.90;;
9968;SDS011;5025;48.890;9.278;2023-05-07T14:25:56;0.80;;;0.80;;
9968;SDS011;5025;48.890;9.278;2023-05-07T14:28:22;1.20;;;1.20;;
9968;SDS011;5025;48.890;9.278;2023-05-07T14:30:47;1.73;;;1.60;;
9968;SDS011;5025;48.890;9.278;2023-05-07T14:33:13;2.20;;;2.00;;
9968;SDS011;5025;48.890;9.278;2023-05-07T14:35:38;5.53;;;1.83;;
9968;SDS011;5025;48.890;9.278;2023-05-07T14:38:03;2.37;;;1.70;;
9968;SDS011;5025;48.890;9.278;2023-05-07T14:40:29;1.50;;;1.40;;
9968;SDS011;5025;48.890;9.278;2023-05-07T14:42:54;1.67;;;1.57;;
9968;SDS011;5025;48.890;9.278;2023-05-07T14:45:20;2.23;;;1.43;;
9968;SDS011;5025;48.890;9.278;2023-05-07T14:47:46;1.60;;;1.50;;
9968;SDS011;5025;48.890;9.278;2023-05-07T14:50:11;1.60;;;1.50;;
9968;SDS011;5025;48.890;9.278;2023-05-07T14:52:36;1.43;;;1.33;;
9968;SDS011;5025;48.890;9.278;2023-05-07T14:55:01;1.60;;;1.50;;
9968;SDS011;5025;48.890;9.278;2023-05-07T14:57:27;1.53;;;1.53;;
9968;SDS011;5025;48.890;9.278;2023-05-07T14:59:52;2.27;;;1.50;;
9968;SDS011;5025;48.890;9.278;2023-05-07T15:02:17;1.70;;;1.60;;
9968;SDS011;5025;48.890;9.278;2023-05-07T15:04:43;1.30;;;1.30;;
9968;SDS011;5025;48.890;9.278;2023-05-07T15:07:11;2.63;;;1.40;;
9968;SDS011;5025;48.890;9.278;2023-05-07T15:09:39;1.60;;;1.50;;
9968;SDS011;5025;48.890;9.278;2023-05-07T15:12:05;1.97;;;1.60;;
9968;SDS011;5025;48.890;9.278;2023-05-07T15:14:31;1.50;;;1.50;;
9968;SDS011;5025;48.890;9.278;2023-05-07T15:16:56;1.70;;;1.60;;
9968;SDS011;5025;48.890;9.278;2023-05-07T15:19:21;1.40;;;1.40;;
9968;SDS011;5025;48.890;9.278;2023-05-07T15:21:49;2.00;;;1.50;;
9968;SDS011;5025;48.890;9.278;2023-05-07T15:24:15;1.90;;;1.70;;
9968;SDS011;5025;48.890;9.278;2023-05-07T15:26:40;2.07;;;1.97;;
9968;SDS011;5025;48.890;9.278;2023-05-07T15:29:05;1.80;;;1.70;;